Time;durP1;ratioP1;P1;durP2;ratioP2;P2;SDS_P1;SDS_P2;PMS_P1;PMS_P2;Temp;Humidity;BMP_temperature;BMP_pressure;BME280_temperature;BME280_humidity;BME280_pressure;Samples;Min_cycle;Max_cycle;Signal;HPM_P1;HPM_P2
2023/06/13 00:00:13;;;;;;;;;;;;;;;26.48;24.21;98263.78;5071001;28;20011;-89
2023/06/13 00:02:39;;;;;;;;;;;;;;;26.13;24.07;98259.94;5073923;28;19920;-89
2023/06/13 00:05:06;;;;;;;;;;;;;;;26.11;24.23;98253.97;5069652;28;20402;-89
2023/06/13 00:07:32;;;;;;;;;;;;;;;25.93;24.74;98251.59;5067320;28;19920;-89
2023/06/13 00:09:59;;;;;;;;;;;;;;;25.95;24.86;98248.38;5071788;28;20372;-89
2023/06/13 00:12:25;;;;;;;;;;;;;;;26.03;24.44;98246.91;5044856;28;19920;-89
2023/06/13 00:14:51;;;;;;;;;;;;;;;26.09;24.31;98245.94;5074587;28;19928;-89
2023/06/13 00:17:18;;;;;;;;;;;;;;;26.08;24.22;98244.38;5076759;28;19923;-89
2023/06/13 00:19:45;;;;;;;;;;;;;;;26.34;23.95;98248.09;5072625;28;19926;-90
2023/06/13 00:22:13;;;;;;;;;;;;;;;26.38;23.54;98234.72;5067373;28;19939;-89
2023/06/13 00:24:43;;;;;;;;;;;;;;;26.46;23.28;98238.91;5076102;28;19943;-89
2023/06/13 00:27:10;;;;;;;;;;;;;;;26.25;23.26;98233.09;5074598;28;19943;-89
2023/06/13 00:29:36;;;;;;;;;;;;;;;26.20;23.70;98228.00;5068005;28;19982;-89
2023/06/13 00:32:02;;;;;;;;;;;;;;;26.18;23.50;98230.47;5074040;28;20249;-89
2023/06/13 00:34:28;;;;;;;;;;;;;;;26.14;23.43;98230.56;5056475;28;19921;-89
2023/06/13 00:36:55;;;;;;;;;;;;;;;26.20;23.78;98228.78;5056610;28;20277;-89
2023/06/13 00:39:21;;;;;;;;;;;;;;;25.92;24.08;98223.91;5070112;28;19916;-89
2023/06/13 00:41:47;;;;;;;;;;;;;;;25.51;24.01;98232.25;5058541;28;19924;-89
2023/06/13 00:44:13;;;;;;;;;;;;;;;25.42;24.13;98230.81;5076197;28;19920;-89
2023/06/13 00:46:41;;;;;;;;;;;;;;;25.39;24.18;98226.06;5072046;28;19917;-89
2023/06/13 00:49:07;;;;;;;;;;;;;;;25.63;24.18;98235.13;5073739;28;19978;-89
2023/06/13 00:51:40;;;;;;;;;;;;;;;25.53;23.98;98230.59;5065502;28;19920;-89
2023/06/13 00:54:07;;;;;;;;;;;;;;;25.69;23.49;98238.19;5074545;28;20280;-89
2023/06/13 00:56:34;;;;;;;;;;;;;;;25.65;23.63;98232.66;5061678;28;19928;-89
2023/06/13 00:59:02;;;;;;;;;;;;;;;25.39;23.83;98222.47;5073475;28;19958;-89
2023/06/13 01:01:30;;;;;;;;;;;;;;;25.35;23.89;98216.94;5066712;28;19975;-89
2023/06/13 01:03:59;;;;;;;;;;;;;;;25.33;24.01;98218.59;5067451;28;19923;-89
2023/06/13 01:06:28;;;;;;;;;;;;;;;25.31;23.53;98215.44;5062492;28;20000;-89
2023/06/13 01:08:58;;;;;;;;;;;;;;;25.27;23.77;98215.53;5068655;28;19917;-88
2023/06/13 01:11:40;;;;;;;;;;;;;;;25.28;23.96;98211.47;5064150;28;19928;-89
2023/06/13 01:14:15;;;;;;;;;;;;;;;25.30;24.67;98219.47;5067277;28;19963;-89
2023/06/13 01:16:50;;;;;;;;;;;;;;;25.15;24.18;98219.03;5052553;28;19916;-89
2023/06/13 01:19:31;;;;;;;;;;;;;;;25.31;24.05;98209.81;5069904;28;19921;-89
2023/06/13 01:21:58;;;;;;;;;;;;;;;25.16;24.59;98212.19;5066877;28;19924;-88
2023/06/13 01:24:43;;;;;;;;;;;;;;;25.19;24.35;98205.69;5061682;28;20003;-89
2023/06/13 01:27:10;;;;;;;;;;;;;;;25.42;24.38;98201.91;5073157;28;19967;-89
2023/06/13 01:29:37;;;;;;;;;;;;;;;25.42;24.27;98207.53;5066398;28;19921;-89
2023/06/13 01:32:04;;;;;;;;;;;;;;;25.57;23.99;98205.16;5073906;28;19924;-89
2023/06/13 01:34:31;;;;;;;;;;;;;;;25.08;24.20;98204.38;5075280;28;20334;-89
2023/06/13 01:36:57;;;;;;;;;;;;;;;25.14;23.89;98211.81;5064321;28;19925;-89
2023/06/13 01:39:23;;;;;;;;;;;;;;;24.97;24.10;98218.66;5062102;28;19920;-90
2023/06/13 01:41:49;;;;;;;;;;;;;;;25.03;24.03;98214.09;5074554;28;20376;-89
2023/06/13 01:44:19;;;;;;;;;;;;;;;25.09;23.92;98214.34;5056948;28;19917;-89
2023/06/13 01:46:51;;;;;;;;;;;;;;;25.08;24.04;98213.59;5070824;28;19920;-90
2023/06/13 01:49:25;;;;;;;;;;;;;;;25.14;23.90;98209.00;5074285;28;20380;-90
2023/06/13 01:52:11;;;;;;;;;;;;;;;25.08;24.31;98212.78;5074364;28;19917;-89
2023/06/13 01:54:41;;;;;;;;;;;;;;;25.14;23.71;98214.63;5073353;28;20469;-89
2023/06/13 01:57:09;;;;;;;;;;;;;;;24.96;24.06;98217.09;5059363;28;19932;-88
2023/06/13 01:59:37;;;;;;;;;;;;;;;25.05;24.10;98206.03;5068453;28;19927;-88
2023/06/13 02:02:04;;;;;;;;;;;;;;;25.09;24.36;98209.53;5072528;28;19959;-89
2023/06/13 02:04:38;;;;;;;;;;;;;;;25.36;23.49;98206.47;5073001;28;20275;-89
2023/06/13 02:07:04;;;;;;;;;;;;;;;25.51;23.39;98210.53;5073070;28;19920;-89
2023/06/13 02:09:30;;;;;;;;;;;;;;;25.41;23.25;98198.28;5072292;28;19921;-89
2023/06/13 02:11:56;;;;;;;;;;;;;;;25.22;23.27;98209.63;5070311;28;19924;-89
2023/06/13 02:14:42;;;;;;;;;;;;;;;;;;;;;
2023/06/13 02:17:08;;;;;;;;;;;;;;;24.58;24.50;98210.28;5072483;28;20297;-89
2023/06/13 02:19:35;;;;;;;;;;;;;;;24.66;23.91;98203.31;5072869;28;20022;-89
2023/06/13 02:22:01;;;;;;;;;;;;;;;24.87;23.95;98200.03;5073611;28;19947;-89
2023/06/13 02:24:27;;;;;;;;;;;;;;;24.84;23.69;98200.09;5072612;28;19920;-89
2023/06/13 02:26:53;;;;;;;;;;;;;;;24.91;23.85;98202.75;5070872;28;19967;-89
2023/06/13 02:29:20;;;;;;;;;;;;;;;25.17;23.65;98199.72;5072638;28;20015;-89
2023/06/13 02:31:46;;;;;;;;;;;;;;;25.33;23.54;98196.09;5061232;28;19931;-89
2023/06/13 02:34:12;;;;;;;;;;;;;;;25.28;23.33;98197.44;5065617;28;19921;-88
2023/06/13 02:36:38;;;;;;;;;;;;;;;25.42;23.71;98193.47;5071206;28;20352;-89
2023/06/13 02:39:16;;;;;;;;;;;;;;;25.54;23.05;98197.59;5072273;28;19920;-89
2023/06/13 02:41:42;;;;;;;;;;;;;;;25.69;22.74;98191.19;5073033;28;19974;-90
2023/06/13 02:44:08;;;;;;;;;;;;;;;25.74;22.52;98195.50;5069296;28;19966;-89
2023/06/13 02:46:34;;;;;;;;;;;;;;;25.79;22.67;98197.75;5041410;28;19947;-89
2023/06/13 02:49:00;;;;;;;;;;;;;;;25.52;22.66;98192.44;5068769;28;19928;-87
2023/06/13 02:51:26;;;;;;;;;;;;;;;25.33;22.98;98196.91;5071658;28;19916;-88
2023/06/13 02:53:52;;;;;;;;;;;;;;;25.28;23.29;98191.81;5072961;28;19966;-88
2023/06/13 02:56:18;;;;;;;;;;;;;;;25.40;22.91;98193.91;5072193;28;20019;-89
2023/06/13 02:58:44;;;;;;;;;;;;;;;25.66;23.12;98192.06;5063689;28;19942;-89
2023/06/13 03:01:12;;;;;;;;;;;;;;;25.60;23.12;98201.50;5068265;28;19925;-89
2023/06/13 03:03:38;;;;;;;;;;;;;;;25.73;23.01;98200.31;5072292;28;20086;-88
2023/06/13 03:06:04;;;;;;;;;;;;;;;25.75;23.11;98206.28;5068854;28;19927;-88
2023/06/13 03:08:31;;;;;;;;;;;;;;;25.80;23.00;98210.59;5072400;28;19927;-89
2023/06/13 03:10:57;;;;;;;;;;;;;;;25.89;23.35;98207.91;5071136;28;20384;-89
2023/06/13 03:13:23;;;;;;;;;;;;;;;25.92;23.19;98212.66;5073593;28;19971;-89
2023/06/13 03:15:51;;;;;;;;;;;;;;;25.23;23.68;98208.41;5071609;28;19974;-89
2023/06/13 03:18:18;;;;;;;;;;;;;;;25.29;23.81;98203.84;5067984;28;19920;-88
2023/06/13 03:20:47;;;;;;;;;;;;;;;25.56;23.79;98210.00;5043994;28;19921;-88
2023/06/13 03:23:14;;;;;;;;;;;;;;;25.70;23.62;98206.03;5073592;28;19967;-88
2023/06/13 03:25:43;;;;;;;;;;;;;;;25.99;23.80;98204.03;5066429;28;20009;-89
2023/06/13 03:28:09;;;;;;;;;;;;;;;25.90;23.93;98199.06;5064903;28;19950;-89
2023/06/13 03:30:35;;;;;;;;;;;;;;;25.87;24.23;98197.13;5050767;28;19958;-89
2023/06/13 03:33:01;;;;;;;;;;;;;;;26.28;23.91;98196.38;5069060;28;19921;-88
2023/06/13 03:35:27;;;;;;;;;;;;;;;26.89;23.54;98198.19;5063262;28;19916;-89
2023/06/13 03:37:53;;;;;;;;;;;;;;;27.10;23.75;98194.69;5071007;28;20394;-89
2023/06/13 03:40:19;;;;;;;;;;;;;;;27.14;24.19;98198.22;5059073;28;19944;-89
2023/06/13 03:42:45;;;;;;;;;;;;;;;27.22;24.66;98199.53;5071914;28;19929;-89
2023/06/13 03:45:15;;;;;;;;;;;;;;;27.55;24.89;98200.88;5070786;28;19947;-89
2023/06/13 03:47:41;;;;;;;;;;;;;;;27.72;24.94;98199.47;5070751;28;20344;-89
2023/06/13 03:50:08;;;;;;;;;;;;;;;28.10;24.77;98192.94;5075196;28;19920;-89
2023/06/13 03:52:34;;;;;;;;;;;;;;;28.55;23.89;98196.06;5075913;28;20228;-88
2023/06/13 03:55:00;;;;;;;;;;;;;;;28.86;23.26;98193.28;5076096;28;19991;-88
2023/06/13 03:57:26;;;;;;;;;;;;;;;29.05;23.16;98190.06;5077017;28;19916;-89
2023/06/13 03:59:52;;;;;;;;;;;;;;;29.29;23.51;98188.28;5063999;28;19924;-89
2023/06/13 04:02:19;;;;;;;;;;;;;;;29.44;22.40;98188.47;5073761;28;20444;-89
2023/06/13 04:04:46;;;;;;;;;;;;;;;29.55;22.87;98185.19;5067799;28;19920;-89
2023/06/13 04:07:13;;;;;;;;;;;;;;;29.49;22.00;98189.91;5071561;28;19916;-89
2023/06/13 04:09:39;;;;;;;;;;;;;;;28.78;23.58;98181.44;5071148;28;19920;-89
2023/06/13 04:12:05;;;;;;;;;;;;;;;28.80;23.07;98181.00;5072718;28;19920;-89
2023/06/13 04:14:32;;;;;;;;;;;;;;;28.73;23.57;98187.69;5074267;28;20395;-89
2023/06/13 04:17:01;;;;;;;;;;;;;;;28.57;24.00;98182.25;5072996;28;20426;-88
2023/06/13 04:19:29;;;;;;;;;;;;;;;28.60;23.67;98179.34;5073937;28;19925;-89
2023/06/13 04:21:55;;;;;;;;;;;;;;;28.75;24.51;98182.41;5075659;28;20015;-88
2023/06/13 04:24:21;;;;;;;;;;;;;;;28.90;24.94;98183.41;5070442;28;19954;-89
2023/06/13 04:26:48;;;;;;;;;;;;;;;29.35;23.80;98177.13;5068488;28;19924;-87
2023/06/13 04:29:15;;;;;;;;;;;;;;;29.08;24.07;98177.81;5072727;28;19946;-89
2023/06/13 04:31:42;;;;;;;;;;;;;;;29.21;24.06;98177.72;5075195;28;19928;-86
2023/06/13 04:34:08;;;;;;;;;;;;;;;29.26;23.43;98183.56;5057964;28;19928;-86
2023/06/13 04:36:35;;;;;;;;;;;;;;;29.38;23.10;98179.03;5073822;28;19956;-86
2023/06/13 04:39:05;;;;;;;;;;;;;;;29.34;24.09;98184.03;5071259;28;20369;-84
2023/06/13 04:41:34;;;;;;;;;;;;;;;29.41;23.64;98181.72;5075578;28;20257;-85
2023/06/13 04:44:03;;;;;;;;;;;;;;;29.35;24.53;98175.09;5064820;28;19917;-86
2023/06/13 04:46:30;;;;;;;;;;;;;;;29.70;24.05;98172.81;5057618;28;19935;-86
2023/06/13 04:48:57;;;;;;;;;;;;;;;29.89;23.78;98170.78;5076146;28;19920;-87
2023/06/13 04:51:25;;;;;;;;;;;;;;;30.09;24.05;98169.06;5075787;28;20391;-86
2023/06/13 04:53:52;;;;;;;;;;;;;;;30.15;23.91;98176.94;5074463;28;19956;-86
2023/06/13 04:56:18;;;;;;;;;;;;;;;30.16;23.84;98179.28;5057847;28;20394;-84
2023/06/13 04:58:44;;;;;;;;;;;;;;;30.71;22.91;98174.31;5069875;28;19920;-86
2023/06/13 05:01:14;;;;;;;;;;;;;;;30.73;23.25;98171.78;5062893;28;19932;-86
2023/06/13 05:03:41;;;;;;;;;;;;;;;30.84;23.21;98176.94;5055816;28;20011;-85
2023/06/13 05:06:07;;;;;;;;;;;;;;;30.70;23.29;98173.53;5042421;28;20412;-85
2023/06/13 05:08:34;;;;;;;;;;;;;;;30.80;23.53;98168.63;5055622;28;20380;-85
2023/06/13 05:11:00;;;;;;;;;;;;;;;30.69;23.53;98169.13;5063428;28;20013;-86
2023/06/13 05:13:26;;;;;;;;;;;;;;;30.73;23.97;98172.59;5075860;28;20310;-85
2023/06/13 05:15:54;;;;;;;;;;;;;;;30.99;23.20;98166.53;5075472;28;20422;-86
2023/06/13 05:18:29;;;;;;;;;;;;;;;30.71;23.12;98165.81;5061630;28;19917;-85
2023/06/13 05:20:56;;;;;;;;;;;;;;;30.58;23.01;98170.88;5055581;28;19916;-86
2023/06/13 05:23:22;;;;;;;;;;;;;;;30.65;24.33;98177.00;5055865;28;19920;-85
2023/06/13 05:25:48;;;;;;;;;;;;;;;31.28;22.03;98163.84;5055648;28;20011;-86
2023/06/13 05:28:16;;;;;;;;;;;;;;;30.86;23.50;98171.56;5055659;28;20007;-86
2023/06/13 05:30:42;;;;;;;;;;;;;;;30.54;23.62;98173.09;5055393;28;19967;-85
2023/06/13 05:33:09;;;;;;;;;;;;;;;29.85;25.42;98173.78;5065400;28;20011;-86
2023/06/13 05:35:35;;;;;;;;;;;;;;;27.51;27.01;98174.81;5040866;28;20440;-86
2023/06/13 05:38:01;;;;;;;;;;;;;;;27.61;26.46;98173.66;5075370;28;19920;-86
2023/06/13 05:40:27;;;;;;;;;;;;;;;26.40;29.71;98187.19;5074474;28;20269;-85
2023/06/13 05:42:53;;;;;;;;;;;;;;;28.24;26.97;98181.88;5071317;28;19921;-86
2023/06/13 05:45:20;;;;;;;;;;;;;;;26.79;28.63;98180.41;5055462;28;19924;-86
2023/06/13 05:47:46;;;;;;;;;;;;;;;25.39;30.90;98180.31;5055204;28;19919;-86
2023/06/13 05:50:13;;;;;;;;;;;;;;;27.29;28.24;98183.19;5065243;28;20436;-85
2023/06/13 05:52:39;;;;;;;;;;;;;;;28.57;25.95;98177.38;5058242;28;20395;-86
2023/06/13 05:55:06;;;;;;;;;;;;;;;29.33;25.97;98171.97;5055059;28;19920;-87
2023/06/13 05:57:42;;;;;;;;;;;;;;;28.98;26.05;98167.72;5037134;28;19916;-87
2023/06/13 06:00:09;;;;;;;;;;;;;;;29.19;25.40;98168.94;5060097;28;19916;-86
2023/06/13 06:02:35;;;;;;;;;;;;;;;28.95;25.65;98163.00;5074876;28;20024;-86
2023/06/13 06:05:03;;;;;;;;;;;;;;;28.91;25.15;98168.03;5074432;28;19917;-86
2023/06/13 06:07:30;;;;;;;;;;;;;;;29.21;24.44;98160.75;5067854;28;19950;-86
2023/06/13 06:09:56;;;;;;;;;;;;;;;29.43;24.16;98164.25;5055655;28;19917;-86
2023/06/13 06:12:22;;;;;;;;;;;;;;;29.21;25.22;98163.59;5070815;28;19922;-86
2023/06/13 06:14:48;;;;;;;;;;;;;;;29.05;25.44;98166.66;5074710;28;19939;-86
2023/06/13 06:17:14;;;;;;;;;;;;;;;29.50;25.10;98163.94;5074573;28;19916;-86
2023/06/13 06:19:40;;;;;;;;;;;;;;;30.36;23.51;98162.63;5074519;28;19916;-87
2023/06/13 06:22:06;;;;;;;;;;;;;;;30.08;24.12;98164.63;5074682;28;20402;-86
2023/06/13 06:24:32;;;;;;;;;;;;;;;28.31;26.54;98164.69;5074119;28;19916;-86
2023/06/13 06:26:59;;;;;;;;;;;;;;;28.94;24.91;98166.31;5056323;28;19923;-86
2023/06/13 06:29:25;;;;;;;;;;;;;;;28.91;24.60;98170.84;5074621;28;19962;-86
2023/06/13 06:31:51;;;;;;;;;;;;;;;29.22;24.78;98159.53;5074128;28;19950;-86
2023/06/13 06:34:17;;;;;;;;;;;;;;;29.70;24.61;98161.47;5074090;28;20007;-86
2023/06/13 06:36:43;;;;;;;;;;;;;;;29.75;25.43;98171.38;5073651;28;19917;-87
2023/06/13 06:39:09;;;;;;;;;;;;;;;30.45;24.12;98162.59;5074051;28;20398;-86
2023/06/13 06:41:35;;;;;;;;;;;;;;;30.79;23.19;98167.03;5067660;28;19927;-85
2023/06/13 06:44:01;;;;;;;;;;;;;;;30.78;23.03;98171.16;5062350;28;20437;-86
2023/06/13 06:46:27;;;;;;;;;;;;;;;30.57;23.29;98167.25;5070779;28;20372;-86
2023/06/13 06:48:53;;;;;;;;;;;;;;;30.59;22.35;98158.28;5055603;28;20020;-85
2023/06/13 06:51:19;;;;;;;;;;;;;;;29.50;23.90;98160.34;5074077;28;19959;-86
2023/06/13 06:53:45;;;;;;;;;;;;;;;28.61;23.35;98161.09;5073607;28;19921;-85
2023/06/13 06:56:11;;;;;;;;;;;;;;;28.83;24.56;98157.44;5073809;28;19928;-86
2023/06/13 06:58:37;;;;;;;;;;;;;;;28.98;24.43;98158.47;5073095;28;19931;-86
2023/06/13 07:01:03;;;;;;;;;;;;;;;28.86;25.54;98159.34;5073363;28;19931;-86
2023/06/13 07:03:30;;;;;;;;;;;;;;;27.65;25.15;98157.41;5073628;28;19920;-86
2023/06/13 07:05:56;;;;;;;;;;;;;;;28.48;25.14;98162.44;5073909;28;19920;-85
2023/06/13 07:08:22;;;;;;;;;;;;;;;27.67;25.89;98157.75;5073711;28;19962;-85
2023/06/13 07:10:48;;;;;;;;;;;;;;;28.44;24.97;98170.25;5073805;28;19917;-85
2023/06/13 07:13:14;;;;;;;;;;;;;;;29.15;25.43;98166.19;5073081;28;19923;-86
2023/06/13 07:15:40;;;;;;;;;;;;;;;30.69;22.88;98157.00;5073239;28;19916;-86
2023/06/13 07:18:08;;;;;;;;;;;;;;;31.02;21.73;98151.38;5053363;28;20459;-86
2023/06/13 07:20:34;;;;;;;;;;;;;;;30.50;22.43;98149.81;5053689;28;20395;-86
2023/06/13 07:23:00;;;;;;;;;;;;;;;29.71;23.90;98150.94;5053488;28;20447;-85
2023/06/13 07:25:27;;;;;;;;;;;;;;;28.06;24.36;98154.31;5053331;28;20004;-85
2023/06/13 07:27:53;;;;;;;;;;;;;;;27.73;25.53;98153.06;5035641;28;20341;-85
2023/06/13 07:30:20;;;;;;;;;;;;;;;27.01;25.51;98152.31;5053441;28;20015;-85
2023/06/13 07:32:46;;;;;;;;;;;;;;;25.37;28.45;98161.06;5071170;28;19920;-85
2023/06/13 07:35:14;;;;;;;;;;;;;;;26.04;26.55;98162.06;5059530;28;19958;-84
2023/06/13 07:37:40;;;;;;;;;;;;;;;26.02;27.04;98153.28;5073269;28;19920;-85
2023/06/13 07:40:08;;;;;;;;;;;;;;;26.41;26.51;98154.97;5073743;28;19947;-85
2023/06/13 07:42:34;;;;;;;;;;;;;;;25.15;28.42;98153.63;5073189;28;19921;-85
2023/06/13 07:45:00;;;;;;;;;;;;;;;24.14;30.49;98154.72;5073458;28;19931;-84
2023/06/13 07:47:26;;;;;;;;;;;;;;;24.19;29.70;98166.22;5071767;28;20027;-84
2023/06/13 07:49:52;;;;;;;;;;;;;;;25.35;27.75;98160.72;5071044;28;19925;-85
2023/06/13 07:52:18;;;;;;;;;;;;;;;25.69;28.05;98156.66;5071199;28;19921;-84
2023/06/13 07:54:44;;;;;;;;;;;;;;;27.52;25.08;98147.38;5059172;28;20388;-84
2023/06/13 07:57:11;;;;;;;;;;;;;;;26.95;25.88;98142.88;5072523;28;19978;-85
2023/06/13 07:59:37;;;;;;;;;;;;;;;28.25;24.97;98143.94;5059499;28;19966;-85
2023/06/13 08:02:03;;;;;;;;;;;;;;;27.74;24.76;98146.19;5072919;28;19947;-85
2023/06/13 08:04:29;;;;;;;;;;;;;;;28.42;23.99;98147.34;5072499;28;19924;-85
2023/06/13 08:06:57;;;;;;;;;;;;;;;27.48;25.48;98146.72;5070639;28;19928;-85
2023/06/13 08:09:23;;;;;;;;;;;;;;;28.29;23.80;98149.44;5059666;28;19975;-85
2023/06/13 08:11:49;;;;;;;;;;;;;;;28.36;24.10;98152.00;5068279;28;19921;-85
2023/06/13 08:14:16;;;;;;;;;;;;;;;28.15;24.61;98152.78;5062880;28;19924;-85
2023/06/13 08:16:42;;;;;;;;;;;;;;;27.30;25.57;98156.56;5071121;28;19917;-85
2023/06/13 08:19:08;;;;;;;;;;;;;;;27.20;25.51;98156.91;5053963;28;19920;-87
2023/06/13 08:21:34;;;;;;;;;;;;;;;26.92;24.91;98164.28;5053950;28;19939;-85
2023/06/13 08:24:00;;;;;;;;;;;;;;;28.40;24.15;98161.13;5066567;28;19917;-86
2023/06/13 08:26:27;;;;;;;;;;;;;;;28.11;24.30;98160.63;5064819;28;20393;-86
2023/06/13 08:28:53;;;;;;;;;;;;;;;27.02;25.99;98165.97;5053128;28;19933;-86
2023/06/13 08:31:23;;;;;;;;;;;;;;;26.66;25.89;98163.47;5059090;28;20292;-85
2023/06/13 08:33:54;;;;;;;;;;;;;;;27.32;25.80;98150.47;5062272;28;19921;-85
2023/06/13 08:36:20;;;;;;;;;;;;;;;27.56;25.30;98157.34;5074547;28;19924;-86
2023/06/13 08:38:47;;;;;;;;;;;;;;;27.76;24.67;98157.03;5074924;28;19920;-85
2023/06/13 08:41:14;;;;;;;;;;;;;;;28.46;24.94;98160.06;5073820;28;19931;-84
2023/06/13 08:43:41;;;;;;;;;;;;;;;27.62;27.16;98161.13;5075568;28;19916;-85
2023/06/13 08:46:07;;;;;;;;;;;;;;;27.56;25.60;98156.53;5075654;28;19924;-82
2023/06/13 08:48:33;;;;;;;;;;;;;;;28.53;24.27;98161.81;5074751;28;19999;-85
2023/06/13 08:50:59;;;;;;;;;;;;;;;29.03;22.96;98157.84;5074829;28;20019;-85
2023/06/13 08:53:27;;;;;;;;;;;;;;;28.02;24.27;98156.50;5075425;28;19927;-86
2023/06/13 08:55:54;;;;;;;;;;;;;;;27.45;24.43;98165.34;5075722;28;19982;-86
2023/06/13 08:58:22;;;;;;;;;;;;;;;27.42;24.92;98163.47;5069300;28;19960;-86
2023/06/13 09:00:49;;;;;;;;;;;;;;;29.12;23.78;98164.34;5059961;28;20375;-85
2023/06/13 09:03:17;;;;;;;;;;;;;;;28.72;23.72;98160.72;5076005;28;19952;-86
2023/06/13 09:05:43;;;;;;;;;;;;;;;28.24;24.30;98169.81;5076068;28;19916;-87
2023/06/13 09:08:10;;;;;;;;;;;;;;;28.96;24.37;98170.25;5075431;28;19924;-90
2023/06/13 09:10:36;;;;;;;;;;;;;;;28.13;24.83;98173.03;5074641;28;19928;-88
2023/06/13 09:13:02;;;;;;;;;;;;;;;27.98;25.13;98171.97;5075337;28;19917;-87
2023/06/13 09:15:29;;;;;;;;;;;;;;;27.70;24.99;98170.16;5068206;28;19928;-86
2023/06/13 09:17:56;;;;;;;;;;;;;;;26.76;26.12;98180.50;5072511;28;19920;-87
2023/06/13 09:20:23;;;;;;;;;;;;;;;26.55;26.32;98182.72;5074854;28;19920;-86
2023/06/13 09:22:50;;;;;;;;;;;;;;;27.76;25.48;98179.59;5063037;28;19921;-85
2023/06/13 09:25:18;;;;;;;;;;;;;;;28.44;23.92;98168.22;5075016;28;20003;-87
2023/06/13 09:27:44;;;;;;;;;;;;;;;29.22;23.73;98171.59;5075273;28;20474;-88
2023/06/13 09:30:14;;;;;;;;;;;;;;;29.03;23.88;98169.16;5075379;28;20306;-88
2023/06/13 09:32:43;;;;;;;;;;;;;;;27.01;25.59;98158.75;5074807;28;20355;-89
2023/06/13 09:35:09;;;;;;;;;;;;;;;26.90;25.53;98157.50;5074277;28;19920;-87
2023/06/13 09:37:35;;;;;;;;;;;;;;;26.43;26.53;98169.41;5075325;28;20461;-87
2023/06/13 09:40:05;;;;;;;;;;;;;;;27.15;27.15;98161.09;5075122;28;19916;-88
2023/06/13 09:42:31;;;;;;;;;;;;;;;29.21;23.57;98157.94;5073822;28;19920;-87
2023/06/13 09:44:57;;;;;;;;;;;;;;;29.52;23.20;98155.00;5074413;28;19924;-86
2023/06/13 09:47:25;;;;;;;;;;;;;;;27.85;24.37;98159.91;5074832;28;19927;-87
2023/06/13 09:49:52;;;;;;;;;;;;;;;29.29;23.96;98157.16;5066894;28;19921;-88
2023/06/13 09:52:21;;;;;;;;;;;;;;;29.87;22.51;98157.09;5075200;28;20003;-87
2023/06/13 09:54:47;;;;;;;;;;;;;;;30.20;21.90;98153.63;5074287;28;19925;-87
2023/06/13 09:57:13;;;;;;;;;;;;;;;28.77;23.36;98150.84;5075074;28;19925;-88
2023/06/13 09:59:39;;;;;;;;;;;;;;;27.72;24.29;98154.34;5074833;28;20382;-87
2023/06/13 10:02:06;;;;;;;;;;;;;;;27.56;24.97;98159.34;5074528;28;20403;-87
2023/06/13 10:04:33;;;;;;;;;;;;;;;28.00;23.21;98156.16;5074424;28;19927;-85
2023/06/13 10:06:59;;;;;;;;;;;;;;;28.10;23.54;98147.75;5069366;28;19920;-87
2023/06/13 10:09:25;;;;;;;;;;;;;;;27.82;23.98;98152.38;5074802;28;20425;-87
2023/06/13 10:11:51;;;;;;;;;;;;;;;28.26;24.05;98154.00;5074157;28;19920;-87
2023/06/13 10:14:21;;;;;;;;;;;;;;;29.93;21.63;98146.72;5074789;28;20276;-88
2023/06/13 10:35:12;;;;;;;;;;;;;;;28.98;22.26;98116.84;5070885;28;19916;-88
2023/06/13 10:37:57;;;;;;;;;;;;;;;27.60;23.68;98117.69;5069657;28;20013;-86
2023/06/13 10:40:38;;;;;;;;;;;;;;;28.85;21.77;98119.00;5063524;28;19917;-87
2023/06/13 10:43:07;;;;;;;;;;;;;;;29.61;21.64;98121.06;5064163;28;20395;-86
2023/06/13 10:45:34;;;;;;;;;;;;;;;29.60;21.64;98119.47;5070624;28;19916;-87
2023/06/13 10:48:07;;;;;;;;;;;;;;;27.14;24.68;98124.91;5070773;28;20287;-86
2023/06/13 10:50:37;;;;;;;;;;;;;;;27.01;25.13;98118.50;5070873;28;19924;-86
2023/06/13 10:53:03;;;;;;;;;;;;;;;27.22;24.04;98123.41;5070016;28;19927;-86
2023/06/13 10:55:29;;;;;;;;;;;;;;;28.86;22.92;98111.31;5070545;28;19917;-86
2023/06/13 10:57:56;;;;;;;;;;;;;;;29.67;20.60;98114.31;5056918;28;20291;-87
2023/06/13 11:00:30;;;;;;;;;;;;;;;28.52;23.05;98113.00;5050491;28;19926;-85
2023/06/13 11:03:09;;;;;;;;;;;;;;;27.46;24.41;98121.03;5050589;28;19928;-86
2023/06/13 11:05:44;;;;;;;;;;;;;;;27.52;24.03;98110.72;5050282;28;19924;-90
2023/06/13 11:08:14;;;;;;;;;;;;;;;28.51;22.34;98113.47;5050187;28;19917;-87
2023/06/13 11:10:44;;;;;;;;;;;;;;;28.95;21.15;98117.78;5050618;28;20272;-89
2023/06/13 11:13:20;;;;;;;;;;;;;;;27.47;23.44;98114.91;5050161;28;19921;-85
2023/06/13 11:15:47;;;;;;;;;;;;;;;27.38;24.87;98126.91;5050735;28;19975;-85
2023/06/13 11:18:14;;;;;;;;;;;;;;;29.12;21.48;98113.44;5069129;28;19921;-85
2023/06/13 11:20:46;;;;;;;;;;;;;;;29.43;21.23;98116.16;5069484;28;20307;-86
2023/06/13 11:23:16;;;;;;;;;;;;;;;27.76;24.05;98118.31;5069612;28;19917;-85
2023/06/13 11:25:42;;;;;;;;;;;;;;;28.55;22.37;98114.13;5069783;28;19931;-85
2023/06/13 11:28:08;;;;;;;;;;;;;;;29.54;20.77;98115.72;5070008;28;19916;-86
2023/06/13 11:30:34;;;;;;;;;;;;;;;29.36;21.72;98114.44;5068572;28;20008;-85
2023/06/13 11:33:02;;;;;;;;;;;;;;;29.28;22.01;98113.19;5049618;28;20314;-85
2023/06/13 11:35:28;;;;;;;;;;;;;;;27.38;24.54;98106.38;5049886;28;19921;-85
2023/06/13 11:37:59;;;;;;;;;;;;;;;27.85;22.62;98109.91;5049255;28;19924;-85
2023/06/13 11:40:32;;;;;;;;;;;;;;;28.35;23.21;98106.03;5068927;28;19920;-86
2023/06/13 11:42:58;;;;;;;;;;;;;;;30.13;20.79;98109.41;5068906;28;19925;-86
2023/06/13 11:45:24;;;;;;;;;;;;;;;28.31;24.24;98110.25;5060660;28;20369;-86
2023/06/13 11:47:59;;;;;;;;;;;;;;;28.22;22.02;98105.31;5053032;28;19925;-85
2023/06/13 11:50:26;;;;;;;;;;;;;;;27.98;23.21;98104.22;5041727;28;20502;-86
2023/06/13 11:53:02;;;;;;;;;;;;;;;28.88;22.53;98100.31;5053665;28;20054;-84
2023/06/13 11:55:28;;;;;;;;;;;;;;;29.85;21.60;98100.16;5054740;28;19921;-85
2023/06/13 11:57:56;;;;;;;;;;;;;;;29.05;21.85;98108.06;5048732;28;20015;-85
2023/06/13 12:00:26;;;;;;;;;;;;;;;28.67;23.11;98104.78;5052778;28;19921;-85
2023/06/13 12:02:52;;;;;;;;;;;;;;;28.59;22.38;98098.63;5054963;28;19921;-86
2023/06/13 12:05:19;;;;;;;;;;;;;;;29.43;21.80;98108.47;5048279;28;19928;-85
2023/06/13 12:07:45;;;;;;;;;;;;;;;28.10;22.46;98106.19;5047449;28;20459;-85
2023/06/13 12:10:15;;;;;;;;;;;;;;;27.91;23.07;98104.47;5054904;28;20379;-85
2023/06/13 12:12:41;;;;;;;;;;;;;;;27.86;23.32;98103.03;5050332;28;19925;-85
2023/06/13 12:15:13;;;;;;;;;;;;;;;28.77;21.96;98099.97;5053851;28;20298;-84
2023/06/13 12:17:55;;;;;;;;;;;;;;;29.09;21.59;98108.69;5037933;28;20024;-85
2023/06/13 12:20:24;;;;;;;;;;;;;;;29.13;22.26;98089.53;5054942;28;20412;-86
2023/06/13 12:22:55;;;;;;;;;;;;;;;28.25;23.05;98093.09;5052173;28;20337;-85
2023/06/13 12:25:22;;;;;;;;;;;;;;;27.49;23.06;98095.53;5055074;28;19951;-85
2023/06/13 12:27:50;;;;;;;;;;;;;;;26.97;24.21;98101.72;5055135;28;19925;-85
2023/06/13 12:30:20;;;;;;;;;;;;;;;28.71;22.27;98094.13;5052807;28;19921;-85
2023/06/13 12:32:48;;;;;;;;;;;;;;;28.99;22.00;98087.31;5042624;28;19929;-86
2023/06/13 12:35:19;;;;;;;;;;;;;;;29.49;22.28;98093.69;5055015;28;19924;-85
2023/06/13 12:37:54;;;;;;;;;;;;;;;28.31;23.22;98084.84;5054347;28;19917;-85
2023/06/13 12:40:24;;;;;;;;;;;;;;;27.50;23.44;98088.63;5050822;28;19998;-85
2023/06/13 12:42:50;;;;;;;;;;;;;;;27.51;22.44;98090.22;5044245;28;19925;-85
2023/06/13 12:45:16;;;;;;;;;;;;;;;28.79;22.34;98088.97;5049047;28;19917;-84
2023/06/13 12:47:42;;;;;;;;;;;;;;;29.55;21.50;98095.44;5053118;28;19921;-84
2023/06/13 12:50:09;;;;;;;;;;;;;;;29.23;21.45;98093.19;5051445;28;19921;-84
2023/06/13 12:52:36;;;;;;;;;;;;;;;29.72;21.20;98099.53;5043613;28;20585;-82
2023/06/13 12:55:03;;;;;;;;;;;;;;;30.19;20.92;98090.53;5048022;28;19925;-82
2023/06/13 12:57:29;;;;;;;;;;;;;;;29.59;21.90;98089.63;5040263;28;19921;-82
2023/06/13 12:59:56;;;;;;;;;;;;;;;28.24;23.87;98100.00;5053123;28;19917;-82
2023/06/13 13:02:24;;;;;;;;;;;;;;;27.05;24.49;98093.81;5044941;28;19921;-82
2023/06/13 13:04:59;;;;;;;;;;;;;;;28.13;24.21;98084.72;5053738;28;20007;-81
2023/06/13 13:07:27;;;;;;;;;;;;;;;29.05;22.65;98079.81;5033604;28;19924;-82